createdAt,value
2018-05-15T00:02:00.596Z,13.16
2018-05-15T00:04:31.056Z,13.18
2018-05-15T00:06:59.439Z,13.23
2018-05-15T00:09:27.731Z,13.24
2018-05-15T00:11:58.309Z,13.20
2018-05-15T00:14:26.653Z,13.25
2018-05-15T00:16:55.035Z,13.23
2018-05-15T00:19:25.614Z,13.19
2018-05-15T00:21:54.056Z,13.21
2018-05-15T00:24:22.376Z,13.23
2018-05-15T00:26:50.696Z,13.21
2018-05-15T00:29:19.068Z,13.25
2018-05-15T00:31:47.427Z,13.29
2018-05-15T00:34:15.765Z,13.29
2018-05-15T00:36:44.088Z,13.26
2018-05-15T00:39:16.828Z,13.31
2018-05-15T00:41:45.238Z,13.25
2018-05-15T00:44:15.833Z,13.26
2018-05-15T00:46:44.226Z,13.33
2018-05-15T00:49:14.789Z,13.32
2018-05-15T00:51:43.132Z,13.33
2018-05-15T00:54:11.456Z,13.36
2018-05-15T00:56:42.105Z,13.34
2018-05-15T00:59:10.548Z,13.31
2018-05-15T01:01:38.864Z,13.31
2018-05-15T01:04:07.217Z,13.27
2018-05-15T01:06:35.601Z,13.35
2018-05-15T01:09:04.204Z,13.35
2018-05-15T01:11:32.507Z,13.31
2018-05-15T01:14:00.830Z,13.29
2018-05-15T01:16:33.640Z,13.23
2018-05-15T01:19:01.993Z,13.24
2018-05-15T01:21:30.321Z,13.24
2018-05-15T01:23:58.987Z,13.25
2018-05-15T01:26:27.297Z,13.24
2018-05-15T01:28:55.621Z,13.20
2018-05-15T01:31:24.006Z,13.20
2018-05-15T01:33:52.324Z,13.18
2018-05-15T01:36:20.669Z,13.20
2018-05-15T01:38:48.972Z,13.20
2018-05-15T01:41:19.561Z,13.18
2018-05-15T01:43:49.853Z,13.19
2018-05-15T01:46:18.188Z,13.19
2018-05-15T01:48:46.533Z,13.20
2018-05-15T01:51:17.132Z,13.22
2018-05-15T01:53:45.483Z,13.23
2018-05-15T01:56:14.145Z,13.22
2018-05-15T01:58:44.725Z,13.20
2018-05-15T02:01:15.326Z,13.26
2018-05-15T02:03:43.678Z,13.33
2018-05-15T02:06:11.992Z,13.25
2018-05-15T02:08:40.339Z,13.38
2018-05-15T02:11:08.653Z,13.26
2018-05-15T02:13:37.047Z,13.20
2018-05-15T02:16:07.560Z,13.22
2018-05-15T02:18:38.048Z,13.28
2018-05-15T02:21:06.348Z,13.24
2018-05-15T02:23:34.677Z,13.33
2018-05-15T02:26:03.046Z,13.31
2018-05-15T02:28:31.372Z,13.30
2018-05-15T02:30:59.724Z,13.35
2018-05-15T02:33:28.044Z,13.38
2018-05-15T02:36:00.847Z,13.43
2018-05-15T02:38:29.191Z,13.37
2018-05-15T02:40:57.509Z,13.38
2018-05-15T02:43:25.845Z,13.40
2018-05-15T02:45:54.192Z,13.37
2018-05-15T02:48:22.526Z,13.35
2018-05-15T02:50:50.871Z,13.43
2018-05-15T02:53:19.231Z,13.40
2018-05-15T02:55:49.849Z,13.45
2018-05-15T02:58:20.141Z,13.34
2018-05-15T03:00:48.456Z,13.36
2018-05-15T03:03:16.809Z,13.33
2018-05-15T03:05:47.407Z,13.35
2018-05-15T03:08:16.121Z,13.37
2018-05-15T03:10:44.436Z,13.39
2018-05-15T03:13:12.748Z,13.39
2018-05-15T03:15:41.509Z,13.37
2018-05-15T03:18:09.856Z,13.36
2018-05-15T03:20:38.179Z,13.35
2018-05-15T03:23:06.537Z,13.29
2018-05-15T03:25:34.881Z,13.26
2018-05-15T03:28:03.214Z,13.26
2018-05-15T03:30:35.885Z,13.36
2018-05-15T03:33:06.468Z,13.24
2018-05-15T03:35:35.112Z,13.23
2018-05-15T03:38:05.706Z,13.25
2018-05-15T03:40:36.293Z,13.13
2018-05-15T03:43:04.611Z,13.11
2018-05-15T03:45:37.676Z,13.13
2018-05-15T03:48:06.011Z,13.13
2018-05-15T03:50:36.597Z,13.08
2018-05-15T03:53:04.936Z,13.19
2018-05-15T03:55:33.343Z,13.11
2018-05-15T03:58:01.700Z,13.03
2018-05-15T04:00:36.199Z,13.10
2018-05-15T04:03:10.713Z,13.04
2018-05-15T04:05:47.263Z,13.07
2018-05-15T04:08:17.747Z,13.09
2018-05-15T04:10:46.378Z,13.12
2018-05-15T04:13:14.590Z,13.12
2018-05-15T04:15:42.988Z,13.15
2018-05-15T04:18:13.548Z,13.14
2018-05-15T04:20:44.984Z,13.02
2018-05-15T04:23:13.338Z,13.11
2018-05-15T04:25:41.680Z,13.13
2018-05-15T04:28:10.108Z,13.11
2018-05-15T04:30:40.964Z,13.08
2018-05-15T04:33:09.285Z,13.08
2018-05-15T04:35:39.906Z,13.03
2018-05-15T04:38:08.562Z,13.03
2018-05-15T04:40:41.349Z,13.07
2018-05-15T04:43:09.682Z,13.11
2018-05-15T04:45:38.017Z,13.08
2018-05-15T04:48:06.328Z,13.04
2018-05-15T04:50:34.969Z,13.07
2018-05-15T04:53:07.601Z,13.12
2018-05-15T04:55:36.018Z,13.15
2018-05-15T04:58:06.606Z,13.19
2018-05-15T05:00:34.938Z,13.21
2018-05-15T05:03:03.328Z,13.19
2018-05-15T05:05:31.645Z,13.23
2018-05-15T05:07:59.987Z,13.31
2018-05-15T05:10:28.323Z,13.30
2018-05-15T05:12:57.013Z,13.32
2018-05-15T05:15:25.320Z,13.29
2018-05-15T05:17:53.628Z,13.31
2018-05-15T05:20:28.683Z,13.43
2018-05-15T05:22:57.017Z,13.33
2018-05-15T05:25:25.380Z,13.23
2018-05-15T05:27:53.707Z,13.26
2018-05-15T05:30:26.528Z,13.22
2018-05-15T05:32:54.880Z,13.20
2018-05-15T05:35:23.193Z,13.18
2018-05-15T05:37:51.760Z,13.26
2018-05-15T05:40:20.088Z,13.34
2018-05-15T05:42:54.952Z,13.37
2018-05-15T05:45:23.275Z,13.49
2018-05-15T05:47:51.582Z,13.70
2018-05-15T05:50:22.241Z,13.79
2018-05-15T05:52:50.580Z,13.80
2018-05-15T05:55:19.028Z,13.86
2018-05-15T05:57:49.526Z,13.87
2018-05-15T06:00:17.837Z,13.83
2018-05-15T06:02:48.026Z,13.82
2018-05-15T06:05:18.525Z,13.78
2018-05-15T06:07:46.841Z,13.80
2018-05-15T06:10:15.512Z,13.80
2018-05-15T06:12:43.852Z,13.72
2018-05-15T06:15:12.168Z,13.79
2018-05-15T06:17:45.263Z,13.78
2018-05-15T06:20:13.585Z,13.80
2018-05-15T06:22:41.911Z,13.83
2018-05-15T06:25:10.264Z,13.71
2018-05-15T06:27:38.576Z,13.76
2018-05-15T06:30:06.901Z,13.77
2018-05-15T06:32:35.251Z,13.77
2018-05-15T06:35:04.114Z,13.77
2018-05-15T06:37:32.445Z,13.85
2018-05-15T06:40:00.757Z,13.85
2018-05-15T06:42:29.078Z,13.77
2018-05-15T06:45:01.791Z,13.94
2018-05-15T06:47:32.393Z,13.97
2018-05-15T06:50:00.709Z,13.81
2018-05-15T06:52:29.044Z,13.92
2018-05-15T06:54:57.677Z,13.83
2018-05-15T06:57:30.491Z,13.64
2018-05-15T06:59:58.839Z,13.69
2018-05-15T07:02:27.146Z,14.00
2018-05-15T07:04:55.481Z,14.11
2018-05-15T07:07:23.783Z,14.27
2018-05-15T07:09:54.265Z,14.51
2018-05-15T07:12:22.621Z,14.69
2018-05-15T07:14:50.955Z,14.68
2018-05-15T07:17:19.267Z,14.50
2018-05-15T07:19:52.081Z,14.45
2018-05-15T07:22:22.693Z,14.46
2018-05-15T07:24:59.628Z,14.49
2018-05-15T07:27:28.100Z,14.35
2018-05-15T07:29:56.346Z,14.31
2018-05-15T07:32:24.685Z,14.30
2018-05-15T07:34:55.197Z,14.45
2018-05-15T07:37:23.528Z,14.32
2018-05-15T07:39:51.861Z,14.43
2018-05-15T07:42:26.829Z,14.49
2018-05-15T07:44:57.384Z,14.42
2018-05-15T07:47:25.704Z,14.53
2018-05-15T07:49:54.272Z,14.57
2018-05-15T07:52:22.600Z,14.61
2018-05-15T07:54:50.928Z,14.74
2018-05-15T07:57:19.268Z,14.89
2018-05-15T07:59:47.590Z,14.77
2018-05-15T08:02:20.084Z,14.93
2018-05-15T08:04:48.389Z,14.95
2018-05-15T08:07:16.777Z,14.76
2018-05-15T08:09:47.272Z,14.53
2018-05-15T08:12:17.963Z,14.44
2018-05-15T08:14:46.301Z,14.33
2018-05-15T08:17:14.629Z,14.42
2018-05-15T08:19:45.063Z,14.41
2018-05-15T08:22:15.656Z,14.37
2018-05-15T08:24:44.260Z,14.37
2018-05-15T08:27:12.592Z,14.39
2018-05-15T08:29:41.013Z,14.35
2018-05-15T08:32:09.393Z,14.15
2018-05-15T08:34:37.701Z,14.10
2018-05-15T08:37:08.509Z,14.04
2018-05-15T08:39:39.089Z,13.91
2018-05-15T08:42:07.399Z,13.88
2018-05-15T08:44:35.773Z,13.76
2018-05-15T08:47:04.117Z,13.66
2018-05-15T08:49:34.885Z,13.60
2018-05-15T08:52:03.218Z,13.67
2018-05-15T08:54:31.565Z,13.72
2018-05-15T08:57:05.848Z,13.54
2018-05-15T08:59:34.182Z,13.42
2018-05-15T09:02:04.695Z,13.38
2018-05-15T09:04:34.970Z,13.37
2018-05-15T09:07:03.319Z,13.50
2018-05-15T09:09:31.637Z,13.59
2018-05-15T09:12:02.180Z,13.78
2018-05-15T09:14:30.514Z,13.77
2018-05-15T09:16:58.833Z,13.94
2018-05-15T09:19:27.175Z,14.06
2018-05-15T09:21:57.593Z,13.95
2018-05-15T09:24:25.926Z,14.04
2018-05-15T09:26:56.490Z,14.00
2018-05-15T09:29:30.548Z,14.05
2018-05-15T09:32:08.696Z,14.17
2018-05-15T09:34:37.025Z,14.27
2018-05-15T09:37:07.612Z,14.35
2018-05-15T09:39:35.921Z,14.41
2018-05-15T09:42:04.248Z,14.48
2018-05-15T09:44:32.593Z,14.56
2018-05-15T09:47:03.155Z,14.83
2018-05-15T09:49:33.563Z,14.74
2018-05-15T09:52:01.901Z,14.98
2018-05-15T09:54:32.376Z,15.25
2018-05-15T09:57:00.708Z,15.17
2018-05-15T09:59:31.216Z,15.29
2018-05-15T10:01:59.553Z,15.61
2018-05-15T10:04:27.900Z,15.91
2018-05-15T10:06:58.531Z,16.10
2018-05-15T10:09:28.925Z,16.44
2018-05-15T10:11:59.516Z,16.70
2018-05-15T10:14:27.825Z,16.46
2018-05-15T10:16:56.141Z,16.82
2018-05-15T10:19:24.468Z,17.71
2018-05-15T10:21:54.296Z,18.62
2018-05-15T10:24:22.605Z,18.87
2018-05-15T10:26:50.978Z,19.70
2018-05-15T10:29:19.375Z,20.03
2018-05-15T10:31:47.693Z,19.87
2018-05-15T10:34:16.049Z,19.90
2018-05-15T10:36:46.788Z,19.79
2018-05-15T10:39:15.159Z,19.44
2018-05-15T10:41:43.761Z,19.27
2018-05-15T10:44:12.069Z,19.14
2018-05-15T10:46:40.409Z,19.00
2018-05-15T10:49:08.768Z,19.12
2018-05-15T10:51:37.104Z,19.77
2018-05-15T10:54:05.480Z,20.01
2018-05-15T10:56:37.442Z,19.75
2018-05-15T10:59:05.794Z,19.43
2018-05-15T11:01:34.178Z,18.52
2018-05-15T11:04:02.558Z,18.19
2018-05-15T11:06:31.124Z,18.06
2018-05-15T11:08:59.475Z,18.31
2018-05-15T11:11:27.764Z,18.50
2018-05-15T11:13:56.110Z,18.29
2018-05-15T11:16:24.467Z,18.14
2018-05-15T11:18:52.855Z,18.50
2018-05-15T11:21:28.897Z,18.91
2018-05-15T11:24:03.402Z,18.83
2018-05-15T11:26:31.742Z,18.65
2018-05-15T11:29:02.244Z,18.63
2018-05-15T11:31:30.593Z,18.36
2018-05-15T11:34:00.233Z,18.10
2018-05-15T11:36:28.624Z,18.43
2018-05-15T11:38:57.058Z,18.62
2018-05-15T11:41:25.375Z,18.49
2018-05-15T11:43:53.816Z,18.58
2018-05-15T11:46:22.154Z,18.53
2018-05-15T11:48:51.234Z,18.48
2018-05-15T11:51:21.583Z,18.61
2018-05-15T11:53:49.259Z,18.84
2018-05-15T11:56:17.585Z,18.89
2018-05-15T11:58:45.915Z,18.95
2018-05-15T12:01:16.200Z,18.88
2018-05-15T12:03:44.676Z,18.87
2018-05-15T12:06:12.998Z,18.81
2018-05-15T12:08:43.401Z,18.72
2018-05-15T12:11:12.086Z,18.65
2018-05-15T12:13:42.504Z,18.61
2018-05-15T12:16:10.905Z,18.79
2018-05-15T12:18:42.924Z,18.87
2018-05-15T12:21:13.273Z,18.92
2018-05-15T12:23:43.613Z,18.68
2018-05-15T12:26:11.885Z,18.52
2018-05-15T12:28:40.227Z,18.47
2018-05-15T12:31:08.586Z,18.29
2018-05-15T12:33:36.923Z,18.36
2018-05-15T12:36:05.245Z,18.42
2018-05-15T12:38:33.635Z,18.36
2018-05-15T12:41:01.970Z,18.45
2018-05-15T12:43:30.624Z,18.41
2018-05-15T12:45:58.957Z,18.53
2018-05-15T12:48:27.342Z,18.58
2018-05-15T12:50:55.881Z,18.57
2018-05-15T12:53:24.200Z,18.70
2018-05-15T12:55:52.516Z,18.62
2018-05-15T12:58:20.865Z,18.55
2018-05-15T13:00:49.245Z,18.52
2018-05-15T13:03:18.078Z,18.47
2018-05-15T13:05:46.392Z,18.42
2018-05-15T13:08:14.757Z,18.35
2018-05-15T13:10:43.093Z,18.33
2018-05-15T13:13:11.405Z,18.36
2018-05-15T13:15:39.773Z,18.27
2018-05-15T13:18:08.138Z,18.29
2018-05-15T13:20:36.505Z,18.51
2018-05-15T13:23:05.101Z,18.41
2018-05-15T13:25:33.439Z,18.43
2018-05-15T13:28:03.851Z,18.33
2018-05-15T13:30:34.313Z,18.04
2018-05-15T13:33:02.632Z,17.90
2018-05-15T13:35:34.550Z,17.67
2018-05-15T13:38:02.909Z,17.80
2018-05-15T13:40:31.264Z,17.70
2018-05-15T13:43:02.768Z,17.66
2018-05-15T13:45:31.104Z,17.70
2018-05-15T13:47:59.432Z,17.90
2018-05-15T13:50:27.849Z,18.00
2018-05-15T13:52:55.876Z,18.18
2018-05-15T13:55:24.339Z,18.36
2018-05-15T13:57:52.693Z,18.36
2018-05-15T14:00:21.006Z,18.36
2018-05-15T14:02:49.317Z,18.27
2018-05-15T14:05:17.693Z,18.06
2018-05-15T14:07:46.000Z,18.17
2018-05-15T14:10:14.301Z,18.00
2018-05-15T14:12:42.630Z,17.88
2018-05-15T14:15:10.944Z,17.92
2018-05-15T14:17:39.309Z,17.91
2018-05-15T14:20:07.683Z,17.83
2018-05-15T14:22:36.009Z,17.69
2018-05-15T14:25:04.388Z,17.68
2018-05-15T14:27:32.851Z,17.77
2018-05-15T14:30:03.019Z,17.64
2018-05-15T14:32:31.373Z,17.71
2018-05-15T14:34:59.696Z,17.73
2018-05-15T14:37:28.018Z,17.72
2018-05-15T14:39:56.395Z,17.83
2018-05-15T14:42:30.936Z,17.98
2018-05-15T14:45:01.329Z,18.02
2018-05-15T14:47:29.593Z,18.22
2018-05-15T14:49:57.978Z,18.44
2018-05-15T14:52:26.321Z,18.53
2018-05-15T14:54:54.701Z,18.57
2018-05-15T14:57:23.052Z,18.60
2018-05-15T14:59:53.509Z,18.64
2018-05-15T15:02:21.845Z,18.61
2018-05-15T15:04:51.785Z,18.72
2018-05-15T15:07:23.837Z,18.92
2018-05-15T15:09:52.190Z,19.26
2018-05-15T15:12:20.525Z,19.13
2018-05-15T15:14:50.989Z,18.96
2018-05-15T15:17:19.396Z,19.00
2018-05-15T15:19:47.642Z,18.88
2018-05-15T15:22:16.338Z,18.94
2018-05-15T15:24:44.677Z,18.96
2018-05-15T15:27:13.062Z,18.87
2018-05-15T15:29:41.396Z,18.79
2018-05-15T15:32:11.706Z,18.81
2018-05-15T15:34:42.205Z,18.78
2018-05-15T15:37:10.545Z,18.72
2018-05-15T15:39:38.882Z,18.88
2018-05-15T15:42:07.457Z,19.02
2018-05-15T15:44:35.775Z,19.05
2018-05-15T15:47:07.887Z,19.27
2018-05-15T15:49:38.302Z,19.56
2018-05-15T15:52:06.716Z,19.36
2018-05-15T15:54:35.085Z,19.33
2018-05-15T15:57:03.424Z,19.26
2018-05-15T15:59:33.678Z,19.15
2018-05-15T16:02:02.050Z,19.05
2018-05-15T16:04:30.382Z,19.02
2018-05-15T16:07:00.475Z,19.08
2018-05-15T16:09:28.837Z,19.08
2018-05-15T16:11:57.145Z,19.01
2018-05-15T16:14:25.493Z,19.08
2018-05-15T16:16:53.853Z,19.14
2018-05-15T16:19:22.176Z,19.17
2018-05-15T16:21:52.568Z,19.22
2018-05-15T16:24:25.022Z,19.30
2018-05-15T16:26:53.353Z,19.33
2018-05-15T16:29:23.202Z,19.22
2018-05-15T16:31:51.581Z,19.42
2018-05-15T16:34:19.893Z,19.27
2018-05-15T16:36:48.231Z,19.15
2018-05-15T16:39:20.658Z,19.20
2018-05-15T16:41:49.409Z,19.26
2018-05-15T16:44:19.886Z,19.19
2018-05-15T16:46:48.248Z,19.28
2018-05-15T16:49:16.630Z,19.33
2018-05-15T16:51:47.029Z,19.23
2018-05-15T16:54:15.421Z,18.65
2018-05-15T16:56:43.728Z,18.01
2018-05-15T16:59:12.380Z,17.81
2018-05-15T17:01:40.909Z,17.42
2018-05-15T17:04:09.256Z,16.98
2018-05-15T17:06:37.805Z,16.29
2018-05-15T17:09:06.200Z,15.75
2018-05-15T17:11:34.618Z,15.16
2018-05-15T17:14:03.117Z,14.78
2018-05-15T17:16:31.512Z,14.63
2018-05-15T17:18:59.849Z,14.40
2018-05-15T17:21:28.330Z,14.20
2018-05-15T17:23:56.877Z,13.85
2018-05-15T17:26:25.393Z,13.78
2018-05-15T17:28:54.108Z,13.67
2018-05-15T17:31:22.512Z,13.70
2018-05-15T17:33:51.033Z,13.77
2018-05-15T17:36:19.829Z,13.72
2018-05-15T17:38:48.363Z,13.66
2018-05-15T17:41:16.778Z,13.42
2018-05-15T17:43:45.391Z,13.38
2018-05-15T17:46:13.705Z,13.33
2018-05-15T17:48:42.319Z,13.16
2018-05-15T17:51:10.958Z,13.07
2018-05-15T17:53:39.340Z,13.03
2018-05-15T17:56:07.938Z,12.85
2018-05-15T17:58:36.609Z,12.61
2018-05-15T18:01:04.964Z,12.57
2018-05-15T18:03:33.673Z,12.58
2018-05-15T18:06:02.283Z,12.54
2018-05-15T18:08:31.003Z,12.37
2018-05-15T18:10:59.675Z,12.41
2018-05-15T18:13:28.427Z,12.22
2018-05-15T18:15:56.917Z,12.06
2018-05-15T18:18:25.346Z,11.98
2018-05-15T18:20:54.024Z,12.06
2018-05-15T18:23:23.237Z,12.00
2018-05-15T18:25:51.637Z,12.06
2018-05-15T18:28:20.322Z,12.07
2018-05-15T18:30:49.090Z,12.21
2018-05-15T18:33:17.282Z,12.16
2018-05-15T18:35:45.846Z,12.28
2018-05-15T18:38:14.471Z,12.13
2018-05-15T18:40:43.017Z,12.06
2018-05-15T18:43:11.486Z,11.91
2018-05-15T18:45:40.071Z,11.69
2018-05-15T18:48:08.692Z,11.69
2018-05-15T18:50:37.365Z,11.63
2018-05-15T18:53:06.060Z,11.50
2018-05-15T18:55:34.611Z,11.51
2018-05-15T18:58:02.937Z,11.50
2018-05-15T19:00:31.560Z,11.48
2018-05-15T19:03:00.094Z,11.49
2018-05-15T19:05:28.499Z,11.45
2018-05-15T19:07:57.075Z,11.62
2018-05-15T19:10:26.043Z,11.54
2018-05-15T19:12:54.859Z,11.42
2018-05-15T19:15:23.594Z,11.36
2018-05-15T19:17:52.356Z,11.42
2018-05-15T19:20:20.865Z,11.50
2018-05-15T19:22:49.493Z,11.51
2018-05-15T19:25:18.004Z,11.50
2018-05-15T19:27:46.509Z,11.59
2018-05-15T19:30:15.153Z,11.69
2018-05-15T19:32:43.818Z,11.68
2018-05-15T19:35:18.741Z,11.66
2018-05-15T19:37:47.699Z,11.42
2018-05-15T19:40:16.437Z,11.42
2018-05-15T19:42:45.122Z,11.35
2018-05-15T19:45:14.051Z,11.47
2018-05-15T19:47:42.797Z,11.41
2018-05-15T19:50:11.525Z,11.24
2018-05-15T19:52:39.861Z,11.04
2018-05-15T19:55:08.499Z,11.13
2018-05-15T19:57:37.229Z,11.09
2018-05-15T20:00:05.975Z,11.00
2018-05-15T20:02:34.622Z,10.92
2018-05-15T20:05:03.340Z,11.05
2018-05-15T20:07:32.073Z,10.99
2018-05-15T20:10:00.713Z,10.94
2018-05-15T20:12:29.233Z,10.99
2018-05-15T20:14:58.023Z,10.98
2018-05-15T20:17:26.665Z,11.04
2018-05-15T20:19:55.549Z,11.15
2018-05-15T20:22:24.165Z,11.29
2018-05-15T20:24:52.542Z,11.13
2018-05-15T20:27:21.349Z,11.11
2018-05-15T20:29:50.113Z,11.13
2018-05-15T20:32:18.776Z,11.19
2018-05-15T20:34:47.787Z,11.02
2018-05-15T20:37:16.444Z,10.87
2018-05-15T20:39:45.143Z,10.90
2018-05-15T20:42:14.181Z,10.84
2018-05-15T20:44:42.913Z,10.82
2018-05-15T20:47:11.558Z,10.77
2018-05-15T20:49:40.501Z,10.78
2018-05-15T20:52:08.816Z,10.72
2018-05-15T20:54:37.664Z,10.73
2018-05-15T20:57:06.106Z,10.72
2018-05-15T20:59:34.870Z,10.75
2018-05-15T21:02:03.276Z,10.78
2018-05-15T21:04:31.895Z,10.77
2018-05-15T21:07:00.733Z,10.72
2018-05-15T21:09:29.652Z,10.66
2018-05-15T21:11:58.241Z,10.65
2018-05-15T21:14:27.453Z,10.67
2018-05-15T21:16:56.002Z,10.67
2018-05-15T21:19:24.601Z,10.56
2018-05-15T21:21:53.436Z,10.56
2018-05-15T21:24:22.345Z,10.59
2018-05-15T21:26:51.117Z,10.60
2018-05-15T21:29:19.694Z,10.62
2018-05-15T21:31:48.365Z,10.64
2018-05-15T21:34:16.817Z,10.60
2018-05-15T21:36:45.270Z,10.66
2018-05-15T21:39:14.037Z,10.62
2018-05-15T21:41:42.422Z,10.66
2018-05-15T21:44:10.904Z,10.67
2018-05-15T21:46:39.410Z,10.78
2018-05-15T21:49:07.898Z,10.76
2018-05-15T21:51:36.382Z,10.76
2018-05-15T21:54:05.029Z,10.77
2018-05-15T21:56:33.817Z,10.80
2018-05-15T21:59:02.670Z,10.78
2018-05-15T22:01:31.838Z,10.78
2018-05-15T22:04:00.607Z,10.80
2018-05-15T22:06:29.299Z,10.82
2018-05-15T22:08:57.880Z,10.69
2018-05-15T22:11:26.557Z,10.81
2018-05-15T22:14:01.534Z,10.77
2018-05-15T22:16:42.632Z,10.75
2018-05-15T22:19:23.824Z,10.82
2018-05-15T22:22:04.852Z,10.77
2018-05-15T22:24:39.753Z,10.81
2018-05-15T22:27:08.424Z,10.88
2018-05-15T22:29:36.797Z,10.94
2018-05-15T22:32:05.674Z,10.98
2018-05-15T22:34:34.392Z,10.97
2018-05-15T22:37:03.237Z,11.00
2018-05-15T22:39:32.102Z,11.04
2018-05-15T22:42:00.636Z,11.05
2018-05-15T22:44:29.385Z,11.12
2018-05-15T22:46:57.960Z,11.06
2018-05-15T22:49:26.660Z,11.12
2018-05-15T22:51:55.553Z,10.99
2018-05-15T22:54:24.280Z,10.94
2018-05-15T22:56:52.801Z,11.07
2018-05-15T22:59:22.037Z,11.02
2018-05-15T23:01:50.666Z,10.99
2018-05-15T23:04:19.637Z,10.98
2018-05-15T23:06:48.429Z,11.06
2018-05-15T23:09:17.241Z,10.97
2018-05-15T23:11:45.557Z,10.97
2018-05-15T23:14:14.246Z,10.92
2018-05-15T23:16:42.756Z,10.87
2018-05-15T23:19:11.800Z,10.95
2018-05-15T23:21:40.667Z,10.96
2018-05-15T23:24:09.477Z,10.95
2018-05-15T23:26:38.204Z,10.98
2018-05-15T23:29:07.082Z,10.95
2018-05-15T23:31:35.273Z,10.97
2018-05-15T23:34:04.145Z,10.99
2018-05-15T23:36:32.915Z,10.94
2018-05-15T23:39:01.391Z,11.01
2018-05-15T23:41:29.834Z,10.89
2018-05-15T23:43:58.543Z,11.03
2018-05-15T23:46:27.410Z,11.00
2018-05-15T23:48:55.930Z,10.95
2018-05-15T23:51:24.786Z,10.99
2018-05-15T23:53:53.141Z,10.98
2018-05-15T23:56:21.629Z,11.10
2018-05-15T23:58:50.460Z,10.97
